Time;durP1;ratioP1;P1;durP2;ratioP2;P2;SDS_P1;SDS_P2;PMS_P1;PMS_P2;Temp;Humidity;BMP_temperature;BMP_pressure;BME280_temperature;BME280_humidity;BME280_pressure;Samples;Min_cycle;Max_cycle;Signal;HPM_P1;HPM_P2
2022/06/06 00:00:17;;;;;;;;;;;;;;;15.59;57.20;100663.52;1652177;87;20316;-58
2022/06/06 00:03:23;;;;;;;;;;;;;;;15.57;57.27;100668.38;1651868;87;20665;-57
2022/06/06 00:06:29;;;;;;;;;;;;;;;15.54;57.33;100673.47;1652222;87;20198;-56
2022/06/06 00:09:34;;;;;;;;;;;;;;;15.54;57.42;100672.09;1651529;87;20214;-58
2022/06/06 00:12:38;;;;;;;;;;;;;;;15.51;57.45;100665.56;1651688;87;20549;-56
2022/06/06 00:15:42;;;;;;;;;;;;;;;15.48;57.50;100671.48;1651588;87;20524;-56
2022/06/06 00:18:46;;;;;;;;;;;;;;;15.46;57.58;100670.31;1651453;87;20558;-56
2022/06/06 00:21:50;;;;;;;;;;;;;;;15.45;57.64;100671.37;1651625;87;20274;-57
2022/06/06 00:24:56;;;;;;;;;;;;;;;15.43;57.66;100680.37;1652164;87;20362;-57
2022/06/06 00:28:01;;;;;;;;;;;;;;;15.42;57.76;100678.67;1652184;87;20514;-56
2022/06/06 00:37:53;;;;;;;;;;;;;;;15.35;57.85;100682.41;1652179;87;20204;-58
2022/06/06 00:41:00;;;;;;;;;;;;;;;15.33;57.90;100678.98;1651983;87;20530;-57
2022/06/06 00:44:12;;;;;;;;;;;;;;;15.29;57.98;100678.52;1652219;87;20317;-57
2022/06/06 00:47:31;;;;;;;;;;;;;;;15.27;58.05;100681.16;1652134;87;20249;-58
2022/06/06 00:50:39;;;;;;;;;;;;;;;15.25;58.13;100686.02;1652092;87;20552;-57
2022/06/06 00:53:52;;;;;;;;;;;;;;;15.21;58.16;100685.55;1652045;87;20197;-57
2022/06/06 00:57:02;;;;;;;;;;;;;;;15.17;58.22;100688.40;1652184;87;20289;-57
2022/06/06 01:00:13;;;;;;;;;;;;;;;15.12;58.24;100686.75;1652084;87;20268;-57
2022/06/06 01:03:19;;;;;;;;;;;;;;;15.08;58.29;100690.94;1650157;87;20194;-57
2022/06/06 01:06:25;;;;;;;;;;;;;;;15.00;58.20;100691.07;1652071;87;20209;-58
2022/06/06 01:09:30;;;;;;;;;;;;;;;14.86;58.09;100693.36;1651943;87;20198;-58
2022/06/06 01:12:35;;;;;;;;;;;;;;;14.75;58.09;100694.75;1652202;87;20229;-58
2022/06/06 01:15:43;;;;;;;;;;;;;;;14.64;58.14;100691.64;1641627;85;20250;-58
2022/06/06 01:18:56;;;;;;;;;;;;;;;14.52;58.18;100691.31;1636749;86;20222;-57
2022/06/06 01:22:38;;;;;;;;;;;;;;;14.42;58.28;100697.64;1636662;88;20219;-56
2022/06/06 01:26:03;;;;;;;;;;;;;;;14.33;58.37;100691.92;1636832;88;20267;-57
2022/06/06 01:29:26;;;;;;;;;;;;;;;14.26;58.57;100699.23;1637211;86;20587;-56
2022/06/06 01:32:31;;;;;;;;;;;;;;;14.22;58.79;100699.77;1636659;88;20203;-58
2022/06/06 01:35:44;;;;;;;;;;;;;;;14.17;58.92;100704.48;1637116;86;20255;-58
2022/06/06 01:38:49;;;;;;;;;;;;;;;14.15;59.05;100707.94;1636819;86;20199;-57
2022/06/06 01:42:11;;;;;;;;;;;;;;;14.12;59.17;100712.45;1637904;86;20307;-58
2022/06/06 01:45:25;;;;;;;;;;;;;;;14.09;59.26;100710.09;1636703;88;20242;-58
2022/06/06 01:48:36;;;;;;;;;;;;;;;14.04;59.25;100713.06;1637596;86;20563;-57
2022/06/06 01:51:42;;;;;;;;;;;;;;;13.95;59.25;100713.70;1636669;88;20243;-58
2022/06/06 01:54:48;;;;;;;;;;;;;;;13.89;59.40;100712.22;1636612;88;20366;-58
2022/06/06 01:57:53;;;;;;;;;;;;;;;13.89;59.57;100713.59;1619682;88;20235;-56
2022/06/06 02:00:52;;;;;;;;;;;;;;;13.88;59.66;100721.50;1636546;86;20243;-56
2022/06/06 02:03:57;;;;;;;;;;;;;;;13.86;59.77;100720.31;1636107;88;20920;-56
2022/06/06 02:07:01;;;;;;;;;;;;;;;13.85;59.81;100710.36;1637003;86;20231;-58
2022/06/06 02:10:05;;;;;;;;;;;;;;;13.85;59.92;100717.24;1636136;88;20535;-57
2022/06/06 02:13:11;;;;;;;;;;;;;;;13.87;60.00;100718.43;1636684;87;20238;-56
2022/06/06 02:16:14;;;;;;;;;;;;;;;13.85;59.99;100715.00;1639241;83;20235;-58
2022/06/06 02:19:19;;;;;;;;;;;;;;;13.82;59.97;100719.00;1639542;86;20198;-57
2022/06/06 02:22:24;;;;;;;;;;;;;;;13.82;59.96;100720.89;1639522;86;20211;-58
2022/06/06 02:25:29;;;;;;;;;;;;;;;13.77;59.96;100723.34;1638947;86;20227;-58
2022/06/06 02:28:34;;;;;;;;;;;;;;;13.76;60.05;100725.27;1638869;86;20202;-58
2022/06/06 02:31:39;;;;;;;;;;;;;;;13.78;60.26;100730.03;1638784;87;20271;-58
2022/06/06 02:34:45;;;;;;;;;;;;;;;13.82;60.36;100736.02;1638727;88;20247;-57
2022/06/06 02:37:56;;;;;;;;;;;;;;;13.86;60.39;100736.00;1639034;86;20206;-57
2022/06/06 02:41:07;;;;;;;;;;;;;;;13.90;60.54;100738.69;1638814;88;20283;-58
2022/06/06 02:44:05;;;;;;;;;;;;;;;13.96;60.65;100732.42;1638804;88;20210;-58
2022/06/06 02:47:12;;;;;;;;;;;;;;;14.03;60.76;100743.02;1638759;88;20235;-58
2022/06/06 02:50:17;;;;;;;;;;;;;;;14.12;60.90;100744.12;1638731;88;20195;-59
2022/06/06 02:53:22;;;;;;;;;;;;;;;14.21;60.96;100746.23;1639130;86;20587;-59
2022/06/06 02:56:27;;;;;;;;;;;;;;;14.28;61.03;100743.09;1638765;87;20215;-58
2022/06/06 02:59:36;;;;;;;;;;;;;;;14.37;61.09;100741.42;1638743;88;20211;-58
2022/06/06 03:02:42;;;;;;;;;;;;;;;14.47;61.14;100748.02;1638877;86;20222;-57
2022/06/06 03:06:09;;;;;;;;;;;;;;;14.56;61.21;100746.86;1638700;87;20559;-56
2022/06/06 03:09:38;;;;;;;;;;;;;;;14.66;61.28;100748.80;1638699;88;20552;-57
2022/06/06 03:12:59;;;;;;;;;;;;;;;14.78;61.35;100747.23;1639028;86;20235;-56
2022/06/06 03:23:29;;;;;;;;;;;;;;;15.09;61.46;100745.06;1651610;87;20568;-60
2022/06/06 03:26:35;;;;;;;;;;;;;;;15.19;61.51;100747.50;1643229;87;20234;-60
2022/06/06 03:30:19;;;;;;;;;;;;;;;15.30;61.55;100740.91;1651622;87;20549;-60
2022/06/06 03:33:44;;;;;;;;;;;;;;;15.39;61.57;100737.02;1651609;87;20296;-59
2022/06/06 03:37:10;;;;;;;;;;;;;;;15.48;61.62;100737.20;1656437;85;20211;-59
2022/06/06 03:40:27;;;;;;;;;;;;;;;15.59;61.65;100740.79;1673241;85;20221;-60
2022/06/06 03:43:59;;;;;;;;;;;;;;;15.67;61.68;100739.78;1652141;85;20521;-59
2022/06/06 03:47:24;;;;;;;;;;;;;;;15.74;61.71;100740.70;1615546;89;20583;-59
2022/06/06 03:50:53;;;;;;;;;;;;;;;15.79;61.77;100742.34;1643148;86;20231;-61
2022/06/06 03:54:29;;;;;;;;;;;;;;;15.86;61.86;100733.56;1680080;85;20355;-58
2022/06/06 03:57:34;;;;;;;;;;;;;;;15.97;61.95;100739.91;1679501;85;20200;-59
2022/06/06 04:00:42;;;;;;;;;;;;;;;16.09;62.01;100743.28;1679574;85;20271;-60
2022/06/06 04:03:49;;;;;;;;;;;;;;;16.20;62.05;100750.17;1678829;85;20602;-58
2022/06/06 04:06:55;;;;;;;;;;;;;;;16.28;62.06;100743.93;1679376;85;20552;-57
2022/06/06 04:10:01;;;;;;;;;;;;;;;16.39;62.08;100744.73;1678499;85;20571;-59
2022/06/06 04:13:18;;;;;;;;;;;;;;;16.48;62.11;100748.22;1679356;85;20227;-58
2022/06/06 04:16:59;;;;;;;;;;;;;;;16.58;62.12;100754.23;1679503;85;20267;-60
2022/06/06 04:20:09;;;;;;;;;;;;;;;16.66;62.14;100755.45;1679451;85;20191;-59
2022/06/06 04:23:34;;;;;;;;;;;;;;;16.74;62.19;100762.18;1648039;87;20265;-60
2022/06/06 04:26:56;;;;;;;;;;;;;;;16.84;62.26;100761.80;1678999;85;20219;-60
2022/06/06 04:30:10;;;;;;;;;;;;;;;16.96;62.32;100765.66;1648407;87;20644;-60
2022/06/06 04:33:29;;;;;;;;;;;;;;;17.07;62.34;100766.44;1679636;85;20658;-59
2022/06/06 04:36:59;;;;;;;;;;;;;;;17.17;62.38;100771.05;1678696;85;20203;-58
2022/06/06 04:40:12;;;;;;;;;;;;;;;17.29;62.44;100765.20;1679154;84;20203;-60
2022/06/06 04:43:26;;;;;;;;;;;;;;;17.45;62.54;100770.38;1679096;85;20590;-58
2022/06/06 04:46:57;;;;;;;;;;;;;;;17.61;62.61;100765.83;1679228;84;20515;-62
2022/06/06 04:50:02;;;;;;;;;;;;;;;17.77;62.58;100771.78;1678933;85;20543;-58
2022/06/06 04:53:09;;;;;;;;;;;;;;;17.96;62.55;100777.02;1679355;85;20516;-59
2022/06/06 04:56:15;;;;;;;;;;;;;;;18.11;62.54;100783.73;1676835;85;20564;-59
2022/06/06 04:59:23;;;;;;;;;;;;;;;18.25;62.48;100778.48;1679033;85;20555;-58
2022/06/06 05:02:29;;;;;;;;;;;;;;;18.36;62.45;100777.26;1673323;84;20662;-57
2022/06/06 05:05:37;;;;;;;;;;;;;;;18.48;62.40;100784.41;1678856;85;20527;-58
2022/06/06 05:08:58;;;;;;;;;;;;;;;18.59;62.35;100790.16;1662543;85;20264;-55
2022/06/06 05:12:08;;;;;;;;;;;;;;;18.70;62.33;100789.47;1654554;85;20328;-58
2022/06/06 05:15:23;;;;;;;;;;;;;;;18.85;62.27;100785.88;1672270;85;20599;-56
2022/06/06 05:18:47;;;;;;;;;;;;;;;18.97;62.17;100788.83;1678246;84;20211;-53
2022/06/06 05:22:02;;;;;;;;;;;;;;;19.08;62.08;100791.77;1678855;85;20222;-55
2022/06/06 05:25:12;;;;;;;;;;;;;;;19.20;61.99;100796.92;1679327;85;20247;-54
2022/06/06 05:28:42;;;;;;;;;;;;;;;19.29;61.86;100800.34;1678439;85;20215;-54
2022/06/06 05:31:57;;;;;;;;;;;;;;;19.38;61.82;100799.55;1661811;85;20564;-56
2022/06/06 05:35:12;;;;;;;;;;;;;;;19.49;61.81;100796.06;1673171;85;20219;-56
2022/06/06 05:38:30;;;;;;;;;;;;;;;19.58;61.70;100801.66;1667600;85;20642;-56
2022/06/06 05:41:41;;;;;;;;;;;;;;;19.67;61.61;100812.80;1670357;85;20270;-56
2022/06/06 05:44:54;;;;;;;;;;;;;;;19.76;61.50;100802.58;1672189;85;20599;-56
2022/06/06 05:48:20;;;;;;;;;;;;;;;19.86;61.41;100803.47;1670973;85;20320;-57
2022/06/06 05:51:46;;;;;;;;;;;;;;;19.95;61.36;100807.66;1674896;85;20250;-54
2022/06/06 05:55:19;;;;;;;;;;;;;;;20.06;61.26;100816.69;1677703;85;20215;-52
2022/06/06 05:58:34;;;;;;;;;;;;;;;20.14;61.20;100799.73;1673991;85;20654;-53
2022/06/06 06:01:57;;;;;;;;;;;;;;;20.25;61.09;100801.76;1673227;85;20599;-52
2022/06/06 06:05:08;;;;;;;;;;;;;;;20.31;60.99;100809.21;1675212;85;20208;-53
2022/06/06 06:08:17;;;;;;;;;;;;;;;20.38;60.94;100807.20;1676712;85;20207;-53
2022/06/06 06:11:35;;;;;;;;;;;;;;;20.45;60.83;100808.00;1677475;85;20203;-53
2022/06/06 06:14:47;;;;;;;;;;;;;;;20.51;60.65;100819.06;1677184;85;20243;-53
2022/06/06 06:17:52;;;;;;;;;;;;;;;20.54;60.55;100822.77;1673729;85;20227;-54
2022/06/06 06:21:15;;;;;;;;;;;;;;;20.60;60.47;100820.98;1653314;83;20225;-54
2022/06/06 06:24:25;;;;;;;;;;;;;;;20.67;60.43;100821.77;1648039;85;20220;-54
2022/06/06 06:27:39;;;;;;;;;;;;;;;20.77;60.36;100825.71;1680444;85;20234;-54
2022/06/06 06:31:09;;;;;;;;;;;;;;;20.86;60.19;100819.30;1681560;85;20226;-53
2022/06/06 06:34:23;;;;;;;;;;;;;;;20.93;60.02;100827.58;1605442;88;20229;-54
2022/06/06 06:37:43;;;;;;;;;;;;;;;20.98;59.86;100824.99;1605773;89;20249;-53
2022/06/06 06:41:03;;;;;;;;;;;;;;;21.04;59.82;100815.70;1674035;85;20211;-54
2022/06/06 06:44:13;;;;;;;;;;;;;;;21.12;59.72;100815.38;1681804;85;20207;-54
2022/06/06 06:47:24;;;;;;;;;;;;;;;21.18;59.56;100812.52;1682297;85;20282;-53
2022/06/06 06:50:36;;;;;;;;;;;;;;;21.21;59.36;100816.22;1672627;85;20218;-54
2022/06/06 06:53:46;;;;;;;;;;;;;;;21.27;59.22;100813.88;1675058;85;20203;-54
2022/06/06 06:57:09;;;;;;;;;;;;;;;21.35;59.09;100814.95;1681766;85;20615;-56
2022/06/06 07:00:21;;;;;;;;;;;;;;;21.46;59.04;100811.37;1667286;83;20234;-54
2022/06/06 07:11:08;;;;;;;;;;;;;;;21.76;58.49;100815.02;1682043;85;20210;-54
2022/06/06 07:14:21;;;;;;;;;;;;;;;21.85;58.21;100818.33;1682204;85;20598;-54
2022/06/06 07:17:26;;;;;;;;;;;;;;;22.05;58.00;100821.62;1682762;85;20967;-55
2022/06/06 07:20:35;;;;;;;;;;;;;;;22.32;57.81;100810.33;1678736;84;20653;-54
2022/06/06 07:23:42;;;;;;;;;;;;;;;22.46;57.51;100810.37;1663030;85;20296;-54
2022/06/06 07:26:49;;;;;;;;;;;;;;;22.67;57.37;100806.16;1660572;85;20223;-54
2022/06/06 07:29:59;;;;;;;;;;;;;;;22.94;57.26;100810.13;1653695;86;20571;-55
2022/06/06 07:33:32;;;;;;;;;;;;;;;23.15;56.89;100806.67;1645032;86;20248;-54
2022/06/06 07:36:47;;;;;;;;;;;;;;;23.22;56.51;100804.57;1603384;88;20569;-55
2022/06/06 07:40:09;;;;;;;;;;;;;;;23.23;56.16;100809.91;1657561;86;20225;-55
2022/06/06 07:43:29;;;;;;;;;;;;;;;23.06;55.82;100811.79;1659956;86;20328;-54
2022/06/06 07:46:47;;;;;;;;;;;;;;;23.00;55.71;100809.13;1660134;86;20269;-55
2022/06/06 07:50:20;;;;;;;;;;;;;;;22.97;55.43;100813.81;1659145;86;20600;-55
2022/06/06 07:53:32;;;;;;;;;;;;;;;22.81;55.19;100813.17;1652863;86;20228;-55
2022/06/06 07:56:52;;;;;;;;;;;;;;;22.75;55.07;100808.04;1657745;86;20217;-55
2022/06/06 08:00:19;;;;;;;;;;;;;;;22.90;55.01;100815.88;1633028;87;20286;-55
2022/06/06 08:03:36;;;;;;;;;;;;;;;23.13;54.81;100811.11;1649704;86;20474;-54
2022/06/06 08:06:44;;;;;;;;;;;;;;;23.43;54.63;100810.91;1653484;86;20215;-54
2022/06/06 08:10:13;;;;;;;;;;;;;;;23.68;54.27;100813.34;1645884;86;20228;-56
2022/06/06 08:13:35;;;;;;;;;;;;;;;23.61;53.79;100817.14;1650170;86;20227;-55
2022/06/06 08:16:57;;;;;;;;;;;;;;;23.55;53.60;100815.89;1659232;86;20228;-55
2022/06/06 08:20:15;;;;;;;;;;;;;;;23.48;53.32;100812.42;1633382;87;20583;-52
2022/06/06 08:23:24;;;;;;;;;;;;;;;23.58;53.20;100815.39;1624923;85;20255;-57
2022/06/06 08:26:31;;;;;;;;;;;;;;;23.71;52.95;100815.09;1618164;88;20620;-56
2022/06/06 08:29:36;;;;;;;;;;;;;;;23.84;52.74;100811.13;1592440;90;20213;-56
2022/06/06 08:32:40;;;;;;;;;;;;;;;23.97;52.59;100811.70;1636306;87;20533;-55
2022/06/06 08:35:52;;;;;;;;;;;;;;;24.10;52.38;100802.13;1628324;87;20571;-54
2022/06/06 08:39:21;;;;;;;;;;;;;;;24.19;52.17;100810.37;1627940;86;20217;-57
2022/06/06 08:42:31;;;;;;;;;;;;;;;24.33;51.95;100800.00;1623550;86;20573;-55
2022/06/06 08:46:04;;;;;;;;;;;;;;;24.48;51.64;100797.41;1602842;89;20261;-55
2022/06/06 08:50:44;;;;;;;;;;;;;;;24.63;51.49;100792.61;1610869;88;20215;-56
2022/06/06 08:52:42;;;;;;;;;;;;;;;24.78;51.24;100788.67;1602483;89;20222;-54
2022/06/06 08:56:03;;;;;;;;;;;;;;;24.88;51.04;100791.05;1619872;86;20211;-61
2022/06/06 08:59:39;;;;;;;;;;;;;;;25.00;50.66;100783.38;1626450;87;20259;-57
2022/06/06 09:02:59;;;;;;;;;;;;;;;25.03;50.42;100783.41;1627757;88;20243;-55
2022/06/06 09:06:31;;;;;;;;;;;;;;;25.17;50.25;100788.05;1627961;88;20231;-56
2022/06/06 09:09:55;;;;;;;;;;;;;;;25.43;50.21;100779.73;1627424;87;20210;-56
2022/06/06 09:13:07;;;;;;;;;;;;;;;25.70;50.02;100786.74;1628258;88;20222;-57
2022/06/06 09:16:23;;;;;;;;;;;;;;;25.79;49.51;100787.94;1628439;88;20583;-57
2022/06/06 09:19:56;;;;;;;;;;;;;;;25.79;49.20;100796.36;1628552;87;20579;-57
2022/06/06 09:23:24;;;;;;;;;;;;;;;25.65;48.91;100793.15;1627671;87;20223;-59
2022/06/06 09:26:52;;;;;;;;;;;;;;;25.60;48.74;100777.66;1627789;88;20223;-59
2022/06/06 09:30:29;;;;;;;;;;;;;;;25.66;48.73;100779.95;1628539;88;20195;-58
2022/06/06 09:34:03;;;;;;;;;;;;;;;25.68;48.41;100774.93;1567840;91;20276;-57
2022/06/06 09:37:14;;;;;;;;;;;;;;;25.62;48.22;100783.01;1628418;88;20259;-57
2022/06/06 09:40:32;;;;;;;;;;;;;;;25.80;48.17;100782.06;1628601;87;20482;-58
2022/06/06 09:43:52;;;;;;;;;;;;;;;26.07;48.05;100777.84;1628013;88;20572;-57
2022/06/06 09:47:15;;;;;;;;;;;;;;;26.33;47.86;100775.55;1646791;87;20261;-56
2022/06/06 09:50:30;;;;;;;;;;;;;;;26.48;47.44;100777.89;1655752;86;20587;-58
2022/06/06 10:01:30;;;;;;;;;;;;;;;25.87;46.61;100772.03;1632222;86;20575;-55
2022/06/06 10:04:53;;;;;;;;;;;;;;;25.56;46.48;100773.68;1656848;86;20644;-54
2022/06/06 10:08:40;;;;;;;;;;;;;;;25.42;46.42;100772.98;1673941;85;20212;-54
2022/06/06 10:12:24;;;;;;;;;;;;;;;25.26;46.38;100766.30;1669308;84;20660;-53
2022/06/06 10:16:00;;;;;;;;;;;;;;;25.15;46.26;100765.89;1653895;85;20211;-53
2022/06/06 10:19:30;;;;;;;;;;;;;;;25.42;46.25;100761.77;1672358;85;20877;-54
2022/06/06 10:22:49;;;;;;;;;;;;;;;25.76;46.04;100770.24;1674219;85;20242;-54
2022/06/06 10:26:17;;;;;;;;;;;;;;;25.90;45.86;100772.90;1652865;85;20218;-54
2022/06/06 10:33:28;;;;;;;;;;;;;;;25.87;45.43;100764.47;1648725;87;20630;-56
2022/06/06 10:36:57;;;;;;;;;;;;;;;25.74;45.38;100762.64;1660795;84;20225;-57
2022/06/06 10:40:17;;;;;;;;;;;;;;;25.63;45.24;100757.50;1649222;86;20209;-55
2022/06/06 10:43:47;;;;;;;;;;;;;;;25.62;45.22;100757.22;1650656;87;20828;-54
2022/06/06 10:47:21;;;;;;;;;;;;;;;25.91;45.16;100770.41;1655771;85;20567;-53
2022/06/06 10:50:30;;;;;;;;;;;;;;;26.11;44.94;100758.83;1678030;85;20231;-52
2022/06/06 10:54:01;;;;;;;;;;;;;;;26.07;44.66;100764.67;1677726;85;20219;-56
2022/06/06 10:57:29;;;;;;;;;;;;;;;25.95;44.53;100765.39;1677141;85;20215;-53
2022/06/06 11:00:59;;;;;;;;;;;;;;;25.82;44.49;100764.42;1677913;85;20215;-52
2022/06/06 11:04:30;;;;;;;;;;;;;;;25.78;44.37;100768.03;1678224;85;20239;-56
2022/06/06 11:07:44;;;;;;;;;;;;;;;25.84;44.34;100751.53;1678719;85;20211;-54
2022/06/06 11:10:59;;;;;;;;;;;;;;;26.11;44.35;100748.15;1678114;85;20211;-53
2022/06/06 11:14:31;;;;;;;;;;;;;;;26.28;44.05;100750.23;1660034;85;20217;-54
2022/06/06 11:17:51;;;;;;;;;;;;;;;26.41;43.87;100739.95;1641747;87;20261;-55
2022/06/06 11:21:29;;;;;;;;;;;;;;;26.55;43.70;100733.27;1641686;87;20244;-55
2022/06/06 11:24:43;;;;;;;;;;;;;;;26.73;43.58;100742.14;1646435;85;20573;-53
2022/06/06 11:28:13;;;;;;;;;;;;;;;26.81;43.32;100733.19;1684622;85;20915;-55
2022/06/06 11:31:36;;;;;;;;;;;;;;;26.79;43.17;100734.56;1657267;86;20249;-55
2022/06/06 11:34:59;;;;;;;;;;;;;;;26.94;43.23;100722.00;1675668;85;20386;-53
2022/06/06 11:38:46;;;;;;;;;;;;;;;27.07;42.97;100730.76;1680908;85;20215;-53
2022/06/06 11:42:04;;;;;;;;;;;;;;;27.06;42.74;100729.08;1680144;85;20342;-56
2022/06/06 11:45:33;;;;;;;;;;;;;;;27.00;42.52;100713.32;1679075;85;20218;-53
2022/06/06 11:48:58;;;;;;;;;;;;;;;27.10;42.42;100711.93;1671145;84;20286;-55
2022/06/06 11:52:14;;;;;;;;;;;;;;;27.25;42.40;100706.37;1679759;85;20226;-53
2022/06/06 11:55:25;;;;;;;;;;;;;;;27.39;42.16;100710.36;1681447;84;20232;-53
2022/06/06 11:58:48;;;;;;;;;;;;;;;27.33;41.86;100714.84;1708788;84;20412;-53
2022/06/06 12:01:55;;;;;;;;;;;;;;;27.21;41.70;100712.24;1709119;84;20192;-52
2022/06/06 12:05:05;;;;;;;;;;;;;;;27.08;41.62;100714.20;1680620;85;20263;-54
2022/06/06 12:08:14;;;;;;;;;;;;;;;27.07;41.69;100705.45;1680332;85;20242;-52
2022/06/06 12:11:29;;;;;;;;;;;;;;;27.17;41.55;100706.05;1680280;85;20635;-53
2022/06/06 12:15:07;;;;;;;;;;;;;;;27.21;41.38;100697.36;1680272;84;20214;-54
2022/06/06 12:18:33;;;;;;;;;;;;;;;27.29;41.26;100710.33;1676510;85;20235;-54
2022/06/06 12:22:10;;;;;;;;;;;;;;;27.32;41.11;100706.14;1676852;85;20238;-52
2022/06/06 12:25:42;;;;;;;;;;;;;;;27.39;40.92;100698.26;1673313;85;20562;-54
2022/06/06 12:29:10;;;;;;;;;;;;;;;27.31;40.67;100703.88;1653084;86;20587;-56
2022/06/06 12:32:40;;;;;;;;;;;;;;;27.27;40.60;100700.50;1633277;88;20234;-56
2022/06/06 12:36:03;;;;;;;;;;;;;;;27.23;40.46;100699.31;1641945;86;20229;-55
2022/06/06 12:39:32;;;;;;;;;;;;;;;27.19;40.33;100693.42;1658186;86;20290;-56
2022/06/06 12:42:43;;;;;;;;;;;;;;;27.00;40.29;100687.17;1656698;86;20249;-54
2022/06/06 12:46:20;;;;;;;;;;;;;;;26.73;40.18;100678.93;1640672;86;20228;-57
2022/06/06 12:49:58;;;;;;;;;;;;;;;26.67;40.21;100668.77;1601576;87;20216;-56
2022/06/06 12:53:19;;;;;;;;;;;;;;;26.73;40.16;100669.09;1601591;89;20245;-55
2022/06/06 12:56:48;;;;;;;;;;;;;;;26.88;40.09;100676.16;1608516;88;20224;-55
2022/06/06 13:00:14;;;;;;;;;;;;;;;26.89;39.81;100677.87;1654652;86;20746;-54
2022/06/06 13:03:27;;;;;;;;;;;;;;;26.85;39.77;100664.63;1654078;86;20616;-56
2022/06/06 13:06:45;;;;;;;;;;;;;;;26.84;39.68;100660.98;1657796;86;20649;-57
2022/06/06 13:09:58;;;;;;;;;;;;;;;26.88;39.57;100662.70;1656808;86;20636;-55
2022/06/06 13:13:27;;;;;;;;;;;;;;;26.85;39.47;100653.38;1640635;86;20232;-55
2022/06/06 13:16:34;;;;;;;;;;;;;;;26.88;39.46;100667.73;1656308;86;20290;-56
2022/06/06 13:19:46;;;;;;;;;;;;;;;26.85;39.34;100661.26;1646525;86;20268;-57
2022/06/06 13:23:01;;;;;;;;;;;;;;;26.88;39.39;100658.48;1657640;86;20371;-55
2022/06/06 13:26:24;;;;;;;;;;;;;;;27.06;39.44;100665.83;1653605;81;20316;-55
2022/06/06 13:29:38;;;;;;;;;;;;;;;27.25;39.31;100660.52;1641033;87;20221;-56
2022/06/06 13:32:46;;;;;;;;;;;;;;;27.31;39.12;100664.51;1632402;87;20296;-56
2022/06/06 13:36:29;;;;;;;;;;;;;;;27.19;38.96;100664.45;1644233;87;20281;-54
2022/06/06 13:39:56;;;;;;;;;;;;;;;27.11;38.91;100669.21;1640917;85;20829;-56
2022/06/06 13:43:30;;;;;;;;;;;;;;;27.03;38.87;100662.17;1637230;87;20234;-55
2022/06/06 13:46:58;;;;;;;;;;;;;;;27.00;38.79;100665.54;1642193;86;20231;-55
2022/06/06 13:50:25;;;;;;;;;;;;;;;26.95;38.70;100657.64;1627800;88;20625;-56
2022/06/06 13:53:40;;;;;;;;;;;;;;;26.98;38.70;100655.13;1626228;87;20240;-55
2022/06/06 13:56:51;;;;;;;;;;;;;;;27.01;38.63;100655.12;1577280;88;20254;-56
2022/06/06 14:00:25;;;;;;;;;;;;;;;27.09;38.58;100658.25;1593662;89;20211;-53
2022/06/06 14:03:48;;;;;;;;;;;;;;;27.19;38.47;100663.05;1593717;88;20569;-47
2022/06/06 14:07:03;;;;;;;;;;;;;;;27.22;38.26;100658.27;1648195;87;20223;-56
2022/06/06 14:10:16;;;;;;;;;;;;;;;27.22;38.23;100654.05;1646531;87;20222;-59
2022/06/06 14:13:54;;;;;;;;;;;;;;;27.17;38.15;100652.08;1610927;86;20249;-60
2022/06/06 14:17:05;;;;;;;;;;;;;;;27.15;38.08;100648.70;1588865;90;20517;-57
2022/06/06 14:20:17;;;;;;;;;;;;;;;27.04;37.91;100643.32;1587319;90;20293;-58
2022/06/06 14:23:29;;;;;;;;;;;;;;;27.03;37.94;100643.05;1588132;90;20262;-59
2022/06/06 14:26:33;;;;;;;;;;;;;;;27.06;37.91;100635.46;1590197;90;20214;-58
2022/06/06 14:29:46;;;;;;;;;;;;;;;26.93;37.81;100630.36;1613235;88;20223;-58
2022/06/06 14:32:57;;;;;;;;;;;;;;;26.86;37.73;100636.24;1622792;87;20263;-59
2022/06/06 14:36:01;;;;;;;;;;;;;;;26.59;37.68;100632.77;1644660;87;20209;-59
2022/06/06 14:39:07;;;;;;;;;;;;;;;26.52;37.74;100628.50;1649040;87;20221;-59
2022/06/06 14:42:13;;;;;;;;;;;;;;;26.41;37.65;100634.64;1622772;88;20235;-58
2022/06/06 14:45:22;;;;;;;;;;;;;;;26.31;37.67;100634.58;1631436;87;20231;-58
2022/06/06 14:48:29;;;;;;;;;;;;;;;26.28;37.68;100634.58;1649138;87;20249;-58
2022/06/06 14:51:42;;;;;;;;;;;;;;;26.43;37.71;100628.20;1647117;86;20216;-58
2022/06/06 14:54:49;;;;;;;;;;;;;;;26.60;37.64;100628.83;1649757;87;20205;-58
2022/06/06 14:57:58;;;;;;;;;;;;;;;26.74;37.54;100623.02;1630502;87;20225;-59
2022/06/06 15:01:13;;;;;;;;;;;;;;;26.84;37.48;100620.80;1641965;87;20570;-56
2022/06/06 15:04:34;;;;;;;;;;;;;;;26.87;37.44;100619.69;1640762;87;20257;-59
2022/06/06 15:07:47;;;;;;;;;;;;;;;26.98;37.37;100614.92;1640999;87;20237;-58
2022/06/06 15:11:00;;;;;;;;;;;;;;;27.07;37.34;100615.50;1633885;87;20577;-56
2022/06/06 15:14:12;;;;;;;;;;;;;;;27.23;37.26;100608.78;1565918;91;20212;-57
2022/06/06 15:17:20;;;;;;;;;;;;;;;27.26;37.17;100615.80;1569995;90;20225;-58
2022/06/06 15:20:30;;;;;;;;;;;;;;;27.32;37.15;100614.16;1612307;87;20243;-59
2022/06/06 15:23:31;;;;;;;;;;;;;;;27.35;37.07;100616.41;1592117;90;20226;-58
2022/06/06 15:26:43;;;;;;;;;;;;;;;27.43;37.04;100615.85;1590370;90;20245;-58
2022/06/06 15:29:57;;;;;;;;;;;;;;;27.57;36.91;100629.67;1630178;86;20610;-60
2022/06/06 15:33:24;;;;;;;;;;;;;;;27.67;36.79;100631.05;1636926;86;20486;-61
2022/06/06 15:36:52;;;;;;;;;;;;;;;27.80;36.44;100634.70;1633531;87;20297;-61
2022/06/06 15:40:21;;;;;;;;;;;;;;;27.69;36.46;100637.25;1605773;87;20215;-58
2022/06/06 15:43:33;;;;;;;;;;;;;;;27.71;36.38;100637.82;1583236;90;20237;-58
2022/06/06 15:46:57;;;;;;;;;;;;;;;27.97;36.15;100643.45;1616168;86;20220;-60
2022/06/06 15:50:17;;;;;;;;;;;;;;;27.80;36.08;100643.15;1614327;87;20507;-58
2022/06/06 15:53:33;;;;;;;;;;;;;;;28.01;36.00;100645.97;1614383;88;20211;-61
2022/06/06 15:56:47;;;;;;;;;;;;;;;28.43;35.89;100639.40;1613758;88;20546;-59
2022/06/06 15:59:56;;;;;;;;;;;;;;;28.77;35.58;100646.04;1608564;87;20202;-58
2022/06/06 16:03:21;;;;;;;;;;;;;;;29.11;35.38;100648.44;1603088;89;20562;-62
2022/06/06 16:06:29;;;;;;;;;;;;;;;29.29;35.22;100651.97;1626271;87;20203;-60
2022/06/06 16:09:38;;;;;;;;;;;;;;;29.04;35.04;100656.33;1606326;88;20239;-56
2022/06/06 16:12:52;;;;;;;;;;;;;;;28.65;35.09;100661.89;1629144;88;20634;-57
2022/06/06 16:16:18;;;;;;;;;;;;;;;28.24;35.20;100654.64;1626211;86;20523;-58
2022/06/06 16:19:35;;;;;;;;;;;;;;;27.88;35.32;100664.27;1603511;89;20217;-62
2022/06/06 16:22:49;;;;;;;;;;;;;;;27.66;35.45;100660.33;1602751;89;20210;-64
2022/06/06 16:26:16;;;;;;;;;;;;;;;28.07;35.14;100665.97;1603769;89;20225;-64
2022/06/06 16:29:28;;;;;;;;;;;;;;;28.42;34.74;100667.27;1604637;86;20224;-63
2022/06/06 16:32:43;;;;;;;;;;;;;;;28.37;34.56;100674.35;1623572;86;20611;-64
2022/06/06 16:36:04;;;;;;;;;;;;;;;28.03;34.65;100668.50;1628822;88;20230;-63
2022/06/06 16:39:23;;;;;;;;;;;;;;;27.72;34.89;100667.63;1628624;88;20219;-67
2022/06/06 16:49:53;;;;;;;;;;;;;;;26.85;35.09;100676.72;1628069;86;20263;-63
2022/06/06 16:53:10;;;;;;;;;;;;;;;26.56;35.23;100679.63;1653838;83;20209;-64
2022/06/06 16:56:31;;;;;;;;;;;;;;;26.29;35.35;100679.77;1647550;87;20505;-63
2022/06/06 16:59:56;;;;;;;;;;;;;;;26.04;35.46;100682.42;1672655;85;20239;-63
2022/06/06 17:03:03;;;;;;;;;;;;;;;25.87;35.55;100682.25;1683616;83;20646;-63
2022/06/06 17:10:10;;;;;;;;;;;;;;;25.57;35.73;100680.59;1650412;86;20609;-62
2022/06/06 17:13:28;;;;;;;;;;;;;;;25.34;35.80;100684.57;1618650;88;20199;-63
2022/06/06 17:16:42;;;;;;;;;;;;;;;25.10;35.95;100681.78;1634034;87;20579;-63
2022/06/06 17:19:52;;;;;;;;;;;;;;;24.91;36.07;100688.27;1646446;87;20225;-64
2022/06/06 17:23:04;;;;;;;;;;;;;;;24.71;36.18;100690.84;1633486;88;20218;-62
2022/06/06 17:26:18;;;;;;;;;;;;;;;24.57;36.31;100692.30;1643757;87;20237;-63
2022/06/06 17:29:28;;;;;;;;;;;;;;;24.41;36.42;100696.55;1615282;88;20221;-63
2022/06/06 17:32:44;;;;;;;;;;;;;;;24.24;36.56;100696.59;1642480;87;20284;-62